createdAt,value
2019-02-23T00:00:42.932Z,6.05
2019-02-23T00:03:11.567Z,2.98
2019-02-23T00:05:40.289Z,3.35
2019-02-23T00:08:09.029Z,4.62
2019-02-23T00:10:38.045Z,3.00
2019-02-23T00:13:07.512Z,3.17
2019-02-23T00:15:36.503Z,2.85
2019-02-23T00:18:06.618Z,7.37
2019-02-23T00:20:36.930Z,10.72
2019-02-23T00:23:06.169Z,7.03
2019-02-23T00:25:35.451Z,7.00
2019-02-23T00:28:04.972Z,7.33
2019-02-23T00:30:34.078Z,8.43
2019-02-23T00:33:03.222Z,7.33
2019-02-23T00:35:32.362Z,6.03
2019-02-23T00:38:01.417Z,14.20
2019-02-23T00:40:30.634Z,8.60
2019-02-23T00:42:59.291Z,4.60
2019-02-23T00:45:29.208Z,4.05
2019-02-23T00:47:57.739Z,6.55
2019-02-23T00:50:27.268Z,3.80
2019-02-23T00:52:55.829Z,3.92
2019-02-23T00:55:24.879Z,4.28
2019-02-23T00:57:54.191Z,7.10
2019-02-23T01:00:23.397Z,28.83
2019-02-23T01:02:52.315Z,8.53
2019-02-23T01:05:21.575Z,7.95
2019-02-23T01:07:50.992Z,6.65
2019-02-23T01:10:20.646Z,7.03
2019-02-23T01:12:50.017Z,6.60
2019-02-23T01:15:19.095Z,6.90
2019-02-23T01:17:49.297Z,14.20
2019-02-23T01:20:19.915Z,12.45
2019-02-23T01:22:49.032Z,8.88
2019-02-23T01:25:18.242Z,10.80
2019-02-23T01:27:46.880Z,11.03
2019-02-23T01:30:17.001Z,25.43
2019-02-23T01:32:45.541Z,8.83
2019-02-23T01:35:14.261Z,21.93
2019-02-23T01:37:43.519Z,16.50
2019-02-23T01:40:12.892Z,19.27
2019-02-23T01:42:42.126Z,14.65
2019-02-23T01:45:11.475Z,11.15
2019-02-23T01:47:40.760Z,7.55
2019-02-23T01:50:09.645Z,9.85
2019-02-23T01:52:39.005Z,5.90
2019-02-23T01:55:08.564Z,7.70
2019-02-23T01:57:37.872Z,12.15
2019-02-23T02:00:09.876Z,12.68
2019-02-23T02:02:39.554Z,11.38
2019-02-23T02:05:10.040Z,11.10
2019-02-23T02:07:39.204Z,7.87
2019-02-23T02:10:09.807Z,9.95
2019-02-23T02:12:39.275Z,13.62
2019-02-23T02:15:10.755Z,8.95
2019-02-23T02:17:39.629Z,9.15
2019-02-23T02:20:11.241Z,9.10
2019-02-23T02:22:39.704Z,9.35
2019-02-23T02:25:09.266Z,7.45
2019-02-23T02:27:38.146Z,7.60
2019-02-23T02:30:09.700Z,10.55
2019-02-23T02:32:38.949Z,14.00
2019-02-23T02:35:09.328Z,9.30
2019-02-23T02:37:39.473Z,29.12
2019-02-23T02:40:09.464Z,20.12
2019-02-23T02:42:38.628Z,8.70
2019-02-23T02:45:10.009Z,17.15
2019-02-23T02:47:39.490Z,12.60
2019-02-23T02:50:09.715Z,28.50
2019-02-23T02:52:39.087Z,16.80
2019-02-23T02:55:10.127Z,11.12
2019-02-23T02:57:38.755Z,8.08
2019-02-23T03:00:10.297Z,8.90
2019-02-23T03:02:38.841Z,12.23
2019-02-23T03:05:08.159Z,18.57
2019-02-23T03:07:38.269Z,15.80
2019-02-23T03:10:07.638Z,16.02
2019-02-23T03:12:36.928Z,12.37
2019-02-23T03:15:07.363Z,13.10
2019-02-23T03:17:37.354Z,12.58
2019-02-23T03:20:07.706Z,12.10
2019-02-23T03:22:37.013Z,11.45
2019-02-23T03:25:06.801Z,15.20
2019-02-23T03:27:36.011Z,11.90
2019-02-23T03:30:07.413Z,15.15
2019-02-23T03:32:36.712Z,14.47
2019-02-23T03:35:06.159Z,12.45
2019-02-23T03:37:35.718Z,13.75
2019-02-23T03:40:06.625Z,11.68
2019-02-23T03:42:35.920Z,10.43
2019-02-23T03:45:05.976Z,14.68
2019-02-23T03:47:35.103Z,13.55
2019-02-23T03:50:05.273Z,12.20
2019-02-23T03:52:35.256Z,12.75
2019-02-23T03:55:04.699Z,15.05
2019-02-23T03:57:34.036Z,15.98
2019-02-23T04:00:03.158Z,11.10
2019-02-23T04:02:32.579Z,12.20
2019-02-23T04:05:01.879Z,13.72
2019-02-23T04:07:31.165Z,13.35
2019-02-23T04:10:00.609Z,15.75
2019-02-23T04:12:29.910Z,18.00
2019-02-23T04:14:59.314Z,29.60
2019-02-23T04:17:28.521Z,30.32
2019-02-23T04:19:57.659Z,22.00
2019-02-23T04:22:26.913Z,21.23
2019-02-23T04:24:55.552Z,17.87
2019-02-23T04:27:24.219Z,17.80
2019-02-23T04:29:53.058Z,37.13
2019-02-23T04:32:22.347Z,42.20
2019-02-23T04:34:51.007Z,25.90
2019-02-23T04:37:20.672Z,18.37
2019-02-23T04:39:49.797Z,24.05
2019-02-23T04:42:19.268Z,28.42
2019-02-23T04:44:48.962Z,17.73
2019-02-23T04:47:18.180Z,16.50
2019-02-23T04:49:52.886Z,12.25
2019-02-23T04:52:21.825Z,17.73
2019-02-23T04:54:50.690Z,17.02
2019-02-23T04:57:20.157Z,18.42
2019-02-23T04:59:49.681Z,23.67
2019-02-23T05:02:19.170Z,22.52
2019-02-23T05:04:48.541Z,17.48
2019-02-23T05:07:17.454Z,24.20
2019-02-23T05:09:46.433Z,22.15
2019-02-23T05:12:16.182Z,17.15
2019-02-23T05:14:45.280Z,19.27
2019-02-23T05:17:14.122Z,18.17
2019-02-23T05:19:43.141Z,16.93
2019-02-23T05:22:12.034Z,17.40
2019-02-23T05:24:40.814Z,15.90
2019-02-23T05:27:09.743Z,19.48
2019-02-23T05:29:38.596Z,19.12
2019-02-23T05:32:07.987Z,19.37
2019-02-23T05:34:37.396Z,14.98
2019-02-23T05:37:06.905Z,15.25
2019-02-23T05:39:36.432Z,18.25
2019-02-23T05:42:06.332Z,14.43
2019-02-23T05:44:35.413Z,16.02
2019-02-23T05:47:05.092Z,13.65
2019-02-23T05:49:36.782Z,14.58
2019-02-23T05:52:04.885Z,17.35
2019-02-23T05:54:33.847Z,19.85
2019-02-23T05:57:02.416Z,16.77
2019-02-23T05:59:31.355Z,12.82
2019-02-23T06:02:01.676Z,17.12
2019-02-23T06:04:30.473Z,12.20
2019-02-23T06:06:59.456Z,15.00
2019-02-23T06:09:28.813Z,15.48
2019-02-23T06:11:57.803Z,17.30
2019-02-23T06:14:26.773Z,23.87
2019-02-23T06:16:55.447Z,19.73
2019-02-23T06:19:24.113Z,29.07
2019-02-23T06:21:54.558Z,21.07
2019-02-23T06:24:23.537Z,16.25
2019-02-23T06:26:52.486Z,12.15
2019-02-23T06:29:21.321Z,22.00
2019-02-23T06:31:50.311Z,11.10
2019-02-23T06:34:19.471Z,14.33
2019-02-23T06:36:48.559Z,12.30
2019-02-23T06:39:18.661Z,9.85
2019-02-23T06:41:47.659Z,11.63
2019-02-23T06:44:16.499Z,10.63
2019-02-23T06:46:45.357Z,10.05
2019-02-23T06:49:14.412Z,9.93
2019-02-23T06:51:44.389Z,11.35
2019-02-23T06:54:14.625Z,9.15
2019-02-23T06:56:43.644Z,10.65
2019-02-23T06:59:12.466Z,9.63
2019-02-23T07:01:41.343Z,11.60
2019-02-23T07:04:10.576Z,10.05
2019-02-23T07:06:39.488Z,9.63
2019-02-23T07:09:08.575Z,14.00
2019-02-23T07:11:37.737Z,28.50
2019-02-23T07:14:06.900Z,31.07
2019-02-23T07:16:36.062Z,25.75
2019-02-23T07:19:04.953Z,34.53
2019-02-23T07:21:33.838Z,31.55
2019-02-23T07:24:02.749Z,28.87
2019-02-23T07:26:31.326Z,27.00
2019-02-23T07:28:59.982Z,24.77
2019-02-23T07:31:28.618Z,29.07
2019-02-23T07:33:57.868Z,15.20
2019-02-23T07:36:26.937Z,26.33
2019-02-23T07:38:55.973Z,25.90
2019-02-23T07:41:24.665Z,18.62
2019-02-23T07:43:53.494Z,18.15
2019-02-23T07:46:22.238Z,27.15
2019-02-23T07:48:51.313Z,25.90
2019-02-23T07:51:20.058Z,21.45
2019-02-23T07:53:48.908Z,16.97
2019-02-23T07:56:17.886Z,11.20
2019-02-23T07:58:48.037Z,12.30
2019-02-23T08:01:17.250Z,11.22
2019-02-23T08:03:46.396Z,10.72
2019-02-23T08:06:15.632Z,10.78
2019-02-23T08:08:44.496Z,13.40
2019-02-23T08:11:13.270Z,12.18
2019-02-23T08:13:42.109Z,9.53
2019-02-23T08:16:10.948Z,9.95
2019-02-23T08:18:39.817Z,10.78
2019-02-23T08:21:08.627Z,10.48
2019-02-23T08:23:38.627Z,11.63
2019-02-23T08:26:07.540Z,10.63
2019-02-23T08:28:36.469Z,11.25
2019-02-23T08:31:05.464Z,12.15
2019-02-23T08:33:34.512Z,9.45
2019-02-23T08:36:03.816Z,11.22
2019-02-23T08:38:32.804Z,14.30
2019-02-23T08:41:01.907Z,20.30
2019-02-23T08:43:30.680Z,30.37
2019-02-23T08:45:59.464Z,25.77
2019-02-23T08:48:28.546Z,22.20
2019-02-23T08:50:57.296Z,23.20
2019-02-23T08:53:26.355Z,22.87
2019-02-23T08:55:55.117Z,21.48
2019-02-23T08:58:24.325Z,31.23
2019-02-23T09:00:53.048Z,47.20
2019-02-23T09:03:22.208Z,25.57
2019-02-23T09:05:50.984Z,30.43
2019-02-23T09:08:19.785Z,66.02
2019-02-23T09:10:50.274Z,33.02
2019-02-23T09:13:19.199Z,50.03
2019-02-23T09:15:48.091Z,30.55
2019-02-23T09:18:17.184Z,25.97
2019-02-23T09:20:46.284Z,25.50
2019-02-23T09:23:15.061Z,49.50
2019-02-23T09:25:43.744Z,30.00
2019-02-23T09:28:13.001Z,29.25
2019-02-23T09:30:41.777Z,28.10
2019-02-23T09:33:10.861Z,28.45
2019-02-23T09:35:39.957Z,27.37
2019-02-23T09:38:09.123Z,34.60
2019-02-23T09:40:38.030Z,29.02
2019-02-23T09:43:07.924Z,25.00
2019-02-23T09:45:37.605Z,31.85
2019-02-23T09:48:06.641Z,23.90
2019-02-23T09:50:35.528Z,36.03
2019-02-23T09:53:11.222Z,30.62
2019-02-23T09:55:37.305Z,22.22
2019-02-23T09:58:06.467Z,42.67
2019-02-23T10:00:36.627Z,50.45
2019-02-23T10:03:05.600Z,32.35
2019-02-23T10:05:34.492Z,40.10
2019-02-23T10:08:03.747Z,38.25
2019-02-23T10:10:32.538Z,52.03
2019-02-23T10:13:01.701Z,28.75
2019-02-23T10:15:31.694Z,30.37
2019-02-23T10:18:00.786Z,30.25
2019-02-23T10:20:30.134Z,30.10
2019-02-23T10:22:58.685Z,22.35
2019-02-23T10:25:27.345Z,21.68
2019-02-23T10:27:59.114Z,17.45
2019-02-23T10:30:26.847Z,13.62
2019-02-23T10:32:55.732Z,15.78
2019-02-23T10:35:24.792Z,14.15
2019-02-23T10:37:53.951Z,14.00
2019-02-23T10:40:24.016Z,14.87
2019-02-23T10:42:53.075Z,14.98
2019-02-23T10:45:22.248Z,16.52
2019-02-23T10:47:51.313Z,20.68
2019-02-23T10:50:20.357Z,44.10
2019-02-23T10:52:49.124Z,69.00
2019-02-23T10:55:18.407Z,32.45
2019-02-23T10:57:47.465Z,29.87
2019-02-23T11:00:21.248Z,25.55
2019-02-23T11:02:50.234Z,28.60
2019-02-23T11:05:19.341Z,111.83
2019-02-23T11:07:49.035Z,36.42
2019-02-23T11:10:17.863Z,27.35
2019-02-23T11:12:46.794Z,26.77
2019-02-23T11:15:17.648Z,28.38
2019-02-23T11:17:47.554Z,41.75
2019-02-23T11:20:17.363Z,29.65
2019-02-23T11:22:46.415Z,38.15
2019-02-23T11:25:15.549Z,34.63
2019-02-23T11:27:44.444Z,36.35
2019-02-23T11:30:16.814Z,33.70
2019-02-23T11:32:45.833Z,34.53
2019-02-23T11:35:17.466Z,27.93
2019-02-23T11:37:46.492Z,29.82
2019-02-23T11:40:16.144Z,31.82
2019-02-23T11:42:45.075Z,32.42
2019-02-23T11:45:14.036Z,29.75
2019-02-23T11:47:43.089Z,31.85
2019-02-23T11:50:13.388Z,32.35
2019-02-23T11:52:42.710Z,33.92
2019-02-23T11:55:11.968Z,31.80
2019-02-23T11:57:41.352Z,27.87
2019-02-23T12:00:11.982Z,28.50
2019-02-23T12:02:51.783Z,32.13
2019-02-23T12:05:12.472Z,33.50
2019-02-23T12:07:41.769Z,41.90
2019-02-23T12:10:15.407Z,37.30
2019-02-23T12:12:44.737Z,67.32
2019-02-23T12:15:13.741Z,34.65
2019-02-23T12:17:42.811Z,27.20
2019-02-23T12:20:12.754Z,28.77
2019-02-23T12:22:41.517Z,30.55
2019-02-23T12:25:13.055Z,38.85
2019-02-23T12:27:41.246Z,41.45
2019-02-23T12:30:11.506Z,35.00
2019-02-23T12:32:40.455Z,27.58
2019-02-23T12:35:11.373Z,32.40
2019-02-23T12:37:40.531Z,30.68
2019-02-23T12:40:10.267Z,27.67
2019-02-23T12:42:39.030Z,27.67
2019-02-23T12:45:12.787Z,30.37
2019-02-23T12:47:41.813Z,29.80
2019-02-23T12:50:12.699Z,37.45
2019-02-23T12:52:41.867Z,33.42
2019-02-23T12:55:11.825Z,38.53
2019-02-23T12:57:42.148Z,47.48
2019-02-23T13:00:18.872Z,42.33
2019-02-23T13:02:48.120Z,43.08
2019-02-23T13:05:18.237Z,41.70
2019-02-23T13:07:47.936Z,36.63
2019-02-23T13:10:16.874Z,35.52
2019-02-23T13:12:58.373Z,30.75
2019-02-23T13:15:48.353Z,29.67
2019-02-23T13:18:51.356Z,20.08
2019-02-23T13:21:35.163Z,20.70
2019-02-23T13:24:28.270Z,16.85
2019-02-23T13:27:01.869Z,9.83
2019-02-23T13:29:53.695Z,10.50
2019-02-23T13:32:44.437Z,11.05
2019-02-23T13:35:29.007Z,10.93
2019-02-23T13:38:03.729Z,11.43
2019-02-23T13:41:00.111Z,8.10
2019-02-23T13:43:34.867Z,7.35
2019-02-23T13:46:13.066Z,10.00
2019-02-23T13:48:48.006Z,6.55
2019-02-23T13:51:53.859Z,7.03
2019-02-23T13:54:44.006Z,6.40
2019-02-23T13:57:25.220Z,8.10
2019-02-23T14:00:03.574Z,8.65
2019-02-23T14:02:55.178Z,9.98
2019-02-23T14:05:43.365Z,10.08
2019-02-23T14:08:30.081Z,10.25
2019-02-23T14:11:18.661Z,11.70
2019-02-23T14:13:57.438Z,11.95
2019-02-23T14:16:35.035Z,11.28
2019-02-23T14:19:09.988Z,7.10
2019-02-23T14:21:50.417Z,8.28
2019-02-23T14:24:49.878Z,14.45
2019-02-23T14:27:35.152Z,11.40
2019-02-23T14:30:30.228Z,14.80
2019-02-23T14:33:23.703Z,14.40
2019-02-23T14:35:58.549Z,14.55
2019-02-23T14:39:04.418Z,14.15
2019-02-23T14:41:42.333Z,12.70
2019-02-23T14:44:18.530Z,11.75
2019-02-23T14:46:59.559Z,20.25
2019-02-23T14:49:40.270Z,16.00
2019-02-23T14:52:27.775Z,13.98
2019-02-23T14:55:08.359Z,17.00
2019-02-23T14:57:49.809Z,17.25
2019-02-23T15:00:39.562Z,12.75
2019-02-23T15:03:26.344Z,16.73
2019-02-23T15:06:14.574Z,15.60
2019-02-23T15:08:59.016Z,14.13
2019-02-23T15:11:47.914Z,13.05
2019-02-23T15:14:25.876Z,11.25
2019-02-23T15:17:14.408Z,11.25
2019-02-23T15:20:05.736Z,11.93
2019-02-23T15:22:54.199Z,12.78
2019-02-23T15:25:43.797Z,15.68
2019-02-23T15:28:35.825Z,20.55
2019-02-23T15:30:55.738Z,19.60
2019-02-23T15:33:48.497Z,18.07
2019-02-23T15:36:23.119Z,12.00
2019-02-23T15:39:17.257Z,10.30
2019-02-23T15:42:06.997Z,9.73
2019-02-23T15:45:12.566Z,8.25
2019-02-23T15:48:19.671Z,9.10
2019-02-23T15:50:48.876Z,10.20
2019-02-23T15:53:17.991Z,6.47
2019-02-23T15:55:48.070Z,10.85
2019-02-23T15:58:17.065Z,8.83
2019-02-23T16:00:46.231Z,10.35
2019-02-23T16:03:16.067Z,10.82
2019-02-23T16:05:44.911Z,10.78
2019-02-23T16:08:13.848Z,27.35
2019-02-23T16:10:43.304Z,12.45
2019-02-23T16:13:12.125Z,18.45
2019-02-23T16:18:09.038Z,13.70
2019-02-23T16:20:37.885Z,13.62
2019-02-23T16:23:06.660Z,12.95
2019-02-23T16:25:39.300Z,15.70
2019-02-23T16:28:06.171Z,16.07
2019-02-23T16:30:35.343Z,13.85
2019-02-23T16:33:04.489Z,16.93
2019-02-23T16:35:33.326Z,12.45
2019-02-23T16:38:02.400Z,10.80
2019-02-23T16:40:32.800Z,12.05
2019-02-23T16:43:02.647Z,12.93
2019-02-23T16:45:31.631Z,7.35
2019-02-23T16:48:01.492Z,14.07
2019-02-23T16:50:31.430Z,11.25
2019-02-23T16:53:00.308Z,11.75
2019-02-23T16:55:29.250Z,11.95
2019-02-23T16:57:58.000Z,7.42
2019-02-23T17:00:27.073Z,7.72
2019-02-23T17:02:56.549Z,10.32
2019-02-23T17:05:25.175Z,7.70
2019-02-23T17:07:55.107Z,8.43
2019-02-23T17:10:28.094Z,7.80
2019-02-23T17:12:57.936Z,8.93
2019-02-23T17:15:30.805Z,7.97
2019-02-23T17:17:59.252Z,6.78
2019-02-23T17:20:28.540Z,36.63
2019-02-23T17:22:57.373Z,8.70
2019-02-23T17:25:26.261Z,5.65
2019-02-23T17:27:55.717Z,10.38
2019-02-23T17:30:24.985Z,5.75
2019-02-23T17:32:54.260Z,6.40
2019-02-23T17:35:23.133Z,6.20
2019-02-23T17:37:51.926Z,5.62
2019-02-23T17:40:20.819Z,6.80
2019-02-23T17:42:50.009Z,6.28
2019-02-23T17:45:19.003Z,7.85
2019-02-23T17:47:48.063Z,4.62
2019-02-23T17:50:17.285Z,13.08
2019-02-23T17:52:45.906Z,11.08
2019-02-23T17:55:14.989Z,10.00
2019-02-23T17:57:44.030Z,5.87
2019-02-23T18:00:14.617Z,5.92
2019-02-23T18:02:43.581Z,7.35
2019-02-23T18:05:12.423Z,5.50
2019-02-23T18:07:41.224Z,6.80
2019-02-23T18:10:10.345Z,6.10
2019-02-23T18:12:39.454Z,5.60
2019-02-23T18:15:10.589Z,8.85
2019-02-23T18:17:39.669Z,7.67
2019-02-23T18:20:11.045Z,8.85
2019-02-23T18:22:39.922Z,7.83
2019-02-23T18:25:10.172Z,5.50
2019-02-23T18:27:39.198Z,4.90
2019-02-23T18:30:11.390Z,6.03
2019-02-23T18:32:40.315Z,4.00
2019-02-23T18:35:09.345Z,7.17
2019-02-23T18:37:38.477Z,4.27
2019-02-23T18:40:08.466Z,7.60
2019-02-23T18:42:37.558Z,4.40
2019-02-23T18:45:08.290Z,6.97
2019-02-23T18:47:37.332Z,5.77
2019-02-23T18:50:08.660Z,7.60
2019-02-23T18:52:37.830Z,10.03
2019-02-23T18:55:09.268Z,7.77
2019-02-23T18:57:38.342Z,13.53
2019-02-23T19:00:10.137Z,5.30
2019-02-23T19:02:39.238Z,8.40
2019-02-23T19:05:10.712Z,5.90
2019-02-23T19:07:39.717Z,3.80
2019-02-23T19:10:13.371Z,3.73
2019-02-23T19:12:42.260Z,8.07
2019-02-23T19:15:15.349Z,6.17
2019-02-23T19:17:44.423Z,8.07
2019-02-23T19:20:15.844Z,3.10
2019-02-23T19:22:44.577Z,7.00
2019-02-23T19:25:14.724Z,8.27
2019-02-23T19:27:43.492Z,5.30
2019-02-23T19:30:13.603Z,4.67
2019-02-23T19:32:42.821Z,4.70
2019-02-23T19:35:12.302Z,4.43
2019-02-23T19:37:41.194Z,22.20
2019-02-23T19:40:10.838Z,12.43
2019-02-23T19:42:39.850Z,14.13
2019-02-23T19:45:10.320Z,5.33
2019-02-23T19:47:41.530Z,12.87
2019-02-23T19:50:19.217Z,11.03
2019-02-23T19:52:48.046Z,13.20
2019-02-23T19:55:17.379Z,9.07
2019-02-23T19:57:45.942Z,7.30
2019-02-23T20:00:14.512Z,8.60
2019-02-23T20:02:43.226Z,6.63
2019-02-23T20:05:12.044Z,9.83
2019-02-23T20:07:40.830Z,14.30
2019-02-23T20:10:10.699Z,10.47
2019-02-23T20:12:39.451Z,7.37
2019-02-23T20:15:09.928Z,4.87
2019-02-23T20:17:38.996Z,3.35
2019-02-23T20:20:08.494Z,6.25
2019-02-23T20:22:37.653Z,5.78
2019-02-23T20:25:08.530Z,8.38
2019-02-23T20:27:38.363Z,7.77
2019-02-23T20:30:10.083Z,7.10
2019-02-23T20:32:38.895Z,6.73
2019-02-23T20:35:09.002Z,8.93
2019-02-23T20:37:37.800Z,10.33
2019-02-23T20:40:09.648Z,4.60
2019-02-23T20:42:38.536Z,5.03
2019-02-23T20:45:09.183Z,8.90
2019-02-23T20:47:37.833Z,6.43
2019-02-23T20:50:09.058Z,6.73
2019-02-23T20:52:38.207Z,5.27
2019-02-23T20:55:08.721Z,5.60
2019-02-23T20:57:37.957Z,7.73
2019-02-23T21:00:09.510Z,6.43
2019-02-23T21:02:38.344Z,8.03
2019-02-23T21:05:10.017Z,13.20
2019-02-23T21:07:39.254Z,9.70
2019-02-23T21:10:09.639Z,6.43
2019-02-23T21:12:38.637Z,5.83
2019-02-23T21:15:09.498Z,9.00
2019-02-23T21:17:39.635Z,7.62
2019-02-23T21:20:09.552Z,3.37
2019-02-23T21:22:38.920Z,27.83
2019-02-23T21:25:08.692Z,10.17
2019-02-23T21:27:37.346Z,7.47
2019-02-23T21:30:08.503Z,6.30
2019-02-23T21:32:37.657Z,6.77
2019-02-23T21:35:07.905Z,5.17
2019-02-23T21:37:37.178Z,8.93
2019-02-23T21:40:09.387Z,5.20
2019-02-23T21:42:38.306Z,7.47
2019-02-23T21:45:09.571Z,5.37
2019-02-23T21:47:38.406Z,3.50
2019-02-23T21:50:09.606Z,4.47
2019-02-23T21:52:39.689Z,5.70
2019-02-23T21:55:08.762Z,9.60
2019-02-23T21:57:37.781Z,3.73
2019-02-23T22:00:08.880Z,7.03
2019-02-23T22:02:37.855Z,5.13
2019-02-23T22:05:12.306Z,4.27
2019-02-23T22:07:38.188Z,4.07
2019-02-23T22:10:10.006Z,4.30
2019-02-23T22:12:38.696Z,8.33
2019-02-23T22:15:07.876Z,5.93
2019-02-23T22:17:36.603Z,6.30
2019-02-23T22:20:07.371Z,3.40
2019-02-23T22:22:36.079Z,3.83
2019-02-23T22:25:05.255Z,5.60
2019-02-23T22:27:34.062Z,4.77
2019-02-23T22:30:03.584Z,4.13
2019-02-23T22:32:32.745Z,6.53
2019-02-23T22:35:01.984Z,3.40
2019-02-23T22:37:31.186Z,5.97
2019-02-23T22:40:00.271Z,5.37
2019-02-23T22:42:29.519Z,6.72
2019-02-23T22:44:58.512Z,7.33
2019-02-23T22:47:28.539Z,6.75
2019-02-23T22:49:57.444Z,6.00
2019-02-23T22:52:27.716Z,4.25
2019-02-23T22:54:56.255Z,6.35
2019-02-23T22:57:24.783Z,4.95
2019-02-23T22:59:53.417Z,7.25
2019-02-23T23:02:22.187Z,5.45
2019-02-23T23:04:52.039Z,6.77
2019-02-23T23:07:22.213Z,5.25
2019-02-23T23:09:50.855Z,5.35
2019-02-23T23:12:20.135Z,3.90
2019-02-23T23:14:49.055Z,4.83
2019-02-23T23:17:18.001Z,3.87
2019-02-23T23:19:47.117Z,4.95
2019-02-23T23:22:16.272Z,5.65
2019-02-23T23:24:45.050Z,5.22
2019-02-23T23:27:13.861Z,7.33
2019-02-23T23:29:43.030Z,7.62
2019-02-23T23:32:12.064Z,7.55
2019-02-23T23:34:41.130Z,6.20
2019-02-23T23:37:10.181Z,12.07
2019-02-23T23:39:39.370Z,6.70
2019-02-23T23:42:08.118Z,8.70
2019-02-23T23:44:37.012Z,14.35
2019-02-23T23:47:05.641Z,10.75
2019-02-23T23:49:34.173Z,14.43
2019-02-23T23:52:03.337Z,13.00
2019-02-23T23:54:32.453Z,7.90
2019-02-23T23:57:01.751Z,9.20
2019-02-23T23:59:30.796Z,6.55
